sensor_id;sensor_type;location;lat;lon;timestamp;P1;durP1;ratioP1;P2;durP2;ratioP2
46633;SDS011;32362;49.986;8.026;2023-04-26T00:13:31;3.13;;;1.52;;
46633;SDS011;32362;49.986;8.026;2023-04-26T00:40:12;9.73;;;2.38;;
46633;SDS011;32362;49.986;8.026;2023-04-26T01:06:55;8.10;;;2.83;;
46633;SDS011;32362;49.986;8.026;2023-04-26T01:33:35;8.13;;;1.75;;
46633;SDS011;32362;49.986;8.026;2023-04-26T02:00:19;9.35;;;2.42;;
46633;SDS011;32362;49.986;8.026;2023-04-26T02:27:02;5.57;;;2.40;;
46633;SDS011;32362;49.986;8.026;2023-04-26T02:53:44;5.05;;;2.95;;
46633;SDS011;32362;49.986;8.026;2023-04-26T03:20:25;6.03;;;2.97;;
46633;SDS011;32362;49.986;8.026;2023-04-26T03:47:06;6.18;;;2.40;;
46633;SDS011;32362;49.986;8.026;2023-04-26T04:13:47;6.63;;;3.35;;
46633;SDS011;32362;49.986;8.026;2023-04-26T04:40:28;5.22;;;3.10;;
46633;SDS011;32362;49.986;8.026;2023-04-26T05:07:10;7.32;;;3.67;;
46633;SDS011;32362;49.986;8.026;2023-04-26T05:34:07;4.97;;;2.30;;
46633;SDS011;32362;49.986;8.026;2023-04-26T06:00:50;4.88;;;2.78;;
46633;SDS011;32362;49.986;8.026;2023-04-26T06:27:47;8.13;;;3.55;;
46633;SDS011;32362;49.986;8.026;2023-04-26T06:54:28;6.25;;;3.67;;
46633;SDS011;32362;49.986;8.026;2023-04-26T07:21:09;10.07;;;3.35;;
46633;SDS011;32362;49.986;8.026;2023-04-26T07:47:50;12.68;;;2.78;;
46633;SDS011;32362;49.986;8.026;2023-04-26T08:14:34;6.40;;;1.90;;
46633;SDS011;32362;49.986;8.026;2023-04-26T08:41:16;6.72;;;1.88;;
46633;SDS011;32362;49.986;8.026;2023-04-26T09:08:02;4.00;;;1.65;;
46633;SDS011;32362;49.986;8.026;2023-04-26T09:34:46;3.45;;;1.45;;
46633;SDS011;32362;49.986;8.026;2023-04-26T10:01:27;5.47;;;1.60;;
46633;SDS011;32362;49.986;8.026;2023-04-26T10:55:39;3.28;;;1.65;;
46633;SDS011;32362;49.986;8.026;2023-04-26T11:22:21;6.10;;;1.77;;
46633;SDS011;32362;49.986;8.026;2023-04-26T11:49:02;3.92;;;1.67;;
46633;SDS011;32362;49.986;8.026;2023-04-26T12:15:45;5.45;;;1.45;;
46633;SDS011;32362;49.986;8.026;2023-04-26T12:42:27;4.28;;;1.65;;
46633;SDS011;32362;49.986;8.026;2023-04-26T13:09:15;5.00;;;1.50;;
46633;SDS011;32362;49.986;8.026;2023-04-26T13:35:55;6.47;;;1.30;;
46633;SDS011;32362;49.986;8.026;2023-04-26T14:02:51;3.33;;;1.50;;
46633;SDS011;32362;49.986;8.026;2023-04-26T14:29:33;9.10;;;1.77;;
46633;SDS011;32362;49.986;8.026;2023-04-26T14:56:13;4.53;;;1.45;;
46633;SDS011;32362;49.986;8.026;2023-04-26T15:22:54;3.87;;;1.20;;
46633;SDS011;32362;49.986;8.026;2023-04-26T15:49:35;4.47;;;1.13;;
46633;SDS011;32362;49.986;8.026;2023-04-26T16:16:16;3.63;;;1.23;;
46633;SDS011;32362;49.986;8.026;2023-04-26T16:42:57;5.20;;;1.50;;
46633;SDS011;32362;49.986;8.026;2023-04-26T17:09:54;4.30;;;1.40;;
46633;SDS011;32362;49.986;8.026;2023-04-26T17:36:38;5.18;;;1.38;;
46633;SDS011;32362;49.986;8.026;2023-04-26T18:03:19;7.68;;;1.80;;
46633;SDS011;32362;49.986;8.026;2023-04-26T18:30:18;5.38;;;1.17;;
46633;SDS011;32362;49.986;8.026;2023-04-26T18:56:59;3.40;;;1.67;;
46633;SDS011;32362;49.986;8.026;2023-04-26T19:23:41;4.53;;;1.45;;
46633;SDS011;32362;49.986;8.026;2023-04-26T19:50:21;3.60;;;1.38;;
46633;SDS011;32362;49.986;8.026;2023-04-26T20:17:02;4.50;;;1.80;;
46633;SDS011;32362;49.986;8.026;2023-04-26T20:43:43;4.18;;;1.60;;
46633;SDS011;32362;49.986;8.026;2023-04-26T21:10:24;3.33;;;1.40;;
46633;SDS011;32362;49.986;8.026;2023-04-26T21:37:04;5.80;;;1.95;;
46633;SDS011;32362;49.986;8.026;2023-04-26T22:04:00;3.45;;;2.30;;
46633;SDS011;32362;49.986;8.026;2023-04-26T22:30:41;6.30;;;2.53;;
46633;SDS011;32362;49.986;8.026;2023-04-26T22:57:21;8.87;;;3.00;;
46633;SDS011;32362;49.986;8.026;2023-04-26T23:24:02;7.95;;;2.70;;
46633;SDS011;32362;49.986;8.026;2023-04-26T23:50:43;6.00;;;3.15;;
